createdAt,value
2022-11-23T00:00:57.621Z,99.57
2022-11-23T00:03:24.090Z,114.50
2022-11-23T00:05:50.958Z,110.67
2022-11-23T00:08:17.620Z,119.10
2022-11-23T00:10:44.058Z,99.37
2022-11-23T00:13:10.521Z,111.03
2022-11-23T00:15:37.195Z,99.10
2022-11-23T00:18:03.953Z,109.67
2022-11-23T00:20:30.378Z,99.63
2022-11-23T00:22:56.859Z,97.93
2022-11-23T00:25:23.273Z,109.43
2022-11-23T00:27:49.734Z,107.93
2022-11-23T00:30:16.505Z,106.50
2022-11-23T00:32:42.939Z,100.93
2022-11-23T00:35:09.397Z,96.23
2022-11-23T00:37:35.827Z,98.37
2022-11-23T00:40:02.350Z,104.17
2022-11-23T00:42:31.481Z,107.63
2022-11-23T00:45:00.213Z,110.20
2022-11-23T00:47:26.716Z,98.43
2022-11-23T00:49:53.164Z,111.43
2022-11-23T00:52:19.783Z,102.17
2022-11-23T00:54:46.287Z,98.70
2022-11-23T00:57:12.706Z,108.13
2022-11-23T00:59:39.390Z,99.20
2022-11-23T01:02:05.978Z,104.43
2022-11-23T01:04:32.400Z,107.87
2022-11-23T01:06:58.918Z,112.53
2022-11-23T01:09:26.791Z,102.90
2022-11-23T01:11:54.081Z,102.90
2022-11-23T01:14:21.507Z,101.73
2022-11-23T01:16:48.737Z,113.70
2022-11-23T01:19:18.335Z,107.47
2022-11-23T01:21:45.118Z,104.80
2022-11-23T01:24:20.439Z,110.93
2022-11-23T01:26:54.080Z,98.37
2022-11-23T01:29:21.251Z,109.23
2022-11-23T01:31:47.788Z,109.10
2022-11-23T01:34:15.107Z,92.13
2022-11-23T01:36:42.445Z,97.80
2022-11-23T01:39:10.350Z,111.13
2022-11-23T01:41:39.608Z,103.77
2022-11-23T01:44:28.933Z,99.13
2022-11-23T01:46:58.069Z,110.40
2022-11-23T01:49:25.086Z,101.77
2022-11-23T01:51:53.589Z,107.77
2022-11-23T01:54:29.172Z,97.23
2022-11-23T01:57:06.855Z,105.17
2022-11-23T01:59:34.294Z,96.83
2022-11-23T02:02:02.006Z,98.97
2022-11-23T02:04:32.816Z,101.73
2022-11-23T02:07:01.490Z,101.33
2022-11-23T02:09:29.830Z,102.63
2022-11-23T02:11:56.444Z,97.33
2022-11-23T02:14:23.691Z,101.13
2022-11-23T02:16:50.307Z,95.23
2022-11-23T02:19:24.870Z,107.57
2022-11-23T02:21:52.997Z,102.63
2022-11-23T02:24:31.218Z,97.40
2022-11-23T02:26:57.768Z,104.00
2022-11-23T02:29:25.669Z,103.50
2022-11-23T02:31:53.446Z,108.33
2022-11-23T02:34:20.180Z,100.70
2022-11-23T02:36:51.027Z,97.30
2022-11-23T02:39:22.576Z,103.27
2022-11-23T02:41:56.256Z,96.37
2022-11-23T02:44:31.607Z,87.17
2022-11-23T02:46:58.405Z,104.03
2022-11-23T02:49:25.422Z,89.40
2022-11-23T02:51:52.231Z,102.47
2022-11-23T02:54:18.833Z,94.93
2022-11-23T02:56:45.287Z,96.07
2022-11-23T02:59:12.096Z,99.73
2022-11-23T03:01:40.186Z,90.17
2022-11-23T03:04:07.403Z,87.30
2022-11-23T03:06:34.887Z,100.27
2022-11-23T03:09:01.411Z,99.93
2022-11-23T03:11:27.950Z,92.07
2022-11-23T03:13:54.794Z,103.03
2022-11-23T03:16:21.651Z,103.70
2022-11-23T03:18:48.204Z,93.33
2022-11-23T03:21:14.775Z,97.60
2022-11-23T03:23:41.241Z,88.87
2022-11-23T03:26:12.705Z,107.30
2022-11-23T03:28:39.985Z,103.47
2022-11-23T03:31:06.447Z,106.43
2022-11-23T03:33:33.210Z,94.77
2022-11-23T03:36:00.120Z,92.83
2022-11-23T03:38:26.935Z,104.73
2022-11-23T03:40:53.394Z,103.60
2022-11-23T03:43:20.412Z,90.70
2022-11-23T03:45:46.926Z,107.37
2022-11-23T03:48:14.685Z,100.53
2022-11-23T03:50:41.554Z,103.93
2022-11-23T03:53:08.228Z,88.10
2022-11-23T03:55:35.014Z,97.50
2022-11-23T03:58:01.762Z,87.97
2022-11-23T04:00:29.833Z,100.97
2022-11-23T04:02:56.780Z,102.47
2022-11-23T04:05:23.513Z,79.93
2022-11-23T04:07:50.578Z,86.93
2022-11-23T04:10:18.229Z,89.17
2022-11-23T04:12:45.275Z,88.70
2022-11-23T04:15:11.996Z,82.50
2022-11-23T04:17:38.643Z,86.40
2022-11-23T04:20:05.905Z,84.60
2022-11-23T04:22:32.319Z,96.03
2022-11-23T04:24:58.791Z,93.60
2022-11-23T04:27:25.319Z,98.20
2022-11-23T04:29:51.831Z,86.40
2022-11-23T04:32:18.245Z,99.80
2022-11-23T04:34:44.822Z,98.43
2022-11-23T04:37:13.420Z,95.47
2022-11-23T04:39:40.132Z,99.20
2022-11-23T04:42:07.073Z,92.40
2022-11-23T04:44:33.966Z,87.07
2022-11-23T04:47:00.484Z,88.17
2022-11-23T04:49:27.325Z,80.73
2022-11-23T04:51:53.844Z,94.30
2022-11-23T04:54:20.384Z,85.10
2022-11-23T04:56:47.153Z,83.13
2022-11-23T04:59:13.755Z,80.03
2022-11-23T05:01:40.228Z,86.67
2022-11-23T05:04:06.816Z,86.23
2022-11-23T05:06:33.553Z,83.37
2022-11-23T05:09:00.192Z,75.77
2022-11-23T05:11:27.194Z,76.63
2022-11-23T05:13:53.836Z,79.80
2022-11-23T05:16:20.294Z,72.57
2022-11-23T05:18:46.898Z,74.47
2022-11-23T05:21:13.313Z,71.30
2022-11-23T05:23:39.824Z,76.40
2022-11-23T05:26:06.519Z,70.20
2022-11-23T05:28:41.371Z,69.40
2022-11-23T05:31:08.793Z,65.93
2022-11-23T05:33:35.965Z,69.73
2022-11-23T05:36:02.485Z,65.47
2022-11-23T05:38:29.109Z,77.50
2022-11-23T05:40:55.542Z,63.60
2022-11-23T05:43:21.994Z,66.00
2022-11-23T05:45:48.567Z,69.13
2022-11-23T05:48:15.007Z,73.70
2022-11-23T05:50:41.449Z,70.67
2022-11-23T05:53:09.035Z,63.43
2022-11-23T05:55:35.563Z,73.40
2022-11-23T05:58:02.093Z,71.97
2022-11-23T06:00:28.634Z,75.67
2022-11-23T06:02:59.931Z,87.57
2022-11-23T06:05:26.338Z,71.77
2022-11-23T06:07:53.991Z,70.47
2022-11-23T06:10:22.794Z,62.43
2022-11-23T06:12:50.120Z,66.73
2022-11-23T06:15:18.158Z,64.20
2022-11-23T06:17:44.669Z,63.03
2022-11-23T06:20:11.486Z,62.27
2022-11-23T06:22:38.226Z,60.37
2022-11-23T06:25:04.883Z,58.87
2022-11-23T06:27:31.358Z,69.73
2022-11-23T06:29:58.166Z,66.70
2022-11-23T06:32:24.803Z,63.97
2022-11-23T06:34:51.326Z,61.73
2022-11-23T06:37:17.861Z,61.23
2022-11-23T06:39:44.917Z,66.03
2022-11-23T06:44:59.685Z,58.03
2022-11-23T06:47:26.749Z,58.17
2022-11-23T06:49:53.429Z,63.70
2022-11-23T06:52:20.105Z,62.53
2022-11-23T06:54:46.942Z,60.67
2022-11-23T06:57:13.390Z,57.13
2022-11-23T06:59:44.566Z,64.27
2022-11-23T07:02:12.379Z,61.83
2022-11-23T07:04:39.005Z,56.97
2022-11-23T07:07:07.927Z,54.13
2022-11-23T07:09:38.558Z,52.80
2022-11-23T07:12:05.311Z,53.97
2022-11-23T07:14:32.058Z,56.10
2022-11-23T07:16:58.602Z,58.03
2022-11-23T07:19:25.057Z,58.90
2022-11-23T07:21:51.763Z,54.73
2022-11-23T07:24:18.268Z,58.33
2022-11-23T07:26:44.820Z,64.40
2022-11-23T07:29:12.018Z,64.33
2022-11-23T07:31:38.666Z,56.67
2022-11-23T07:34:05.369Z,58.23
2022-11-23T07:36:31.982Z,62.10
2022-11-23T07:38:58.532Z,57.83
2022-11-23T07:41:27.345Z,60.23
2022-11-23T07:43:54.504Z,62.53
2022-11-23T07:46:21.514Z,62.17
2022-11-23T07:48:48.019Z,55.73
2022-11-23T07:51:16.337Z,61.40
2022-11-23T07:53:42.886Z,65.73
2022-11-23T07:56:09.326Z,57.80
2022-11-23T07:58:36.244Z,55.80
2022-11-23T08:01:03.019Z,58.80
2022-11-23T08:03:30.115Z,54.03
2022-11-23T08:05:57.610Z,53.67
2022-11-23T08:08:24.201Z,51.50
2022-11-23T08:10:53.762Z,56.97
2022-11-23T08:13:22.140Z,56.93
2022-11-23T08:15:54.419Z,53.13
2022-11-23T08:18:21.860Z,61.27
2022-11-23T08:20:48.622Z,63.03
2022-11-23T08:23:15.250Z,56.93
2022-11-23T08:25:42.050Z,55.33
2022-11-23T08:28:08.797Z,57.20
2022-11-23T08:30:35.762Z,59.83
2022-11-23T08:33:06.211Z,56.50
2022-11-23T08:35:41.954Z,53.13
2022-11-23T08:38:09.807Z,49.17
2022-11-23T08:40:37.195Z,62.13
2022-11-23T08:43:04.334Z,55.33
2022-11-23T08:45:31.024Z,56.17
2022-11-23T08:48:01.896Z,53.90
2022-11-23T08:50:35.207Z,54.90
2022-11-23T08:53:01.836Z,59.23
2022-11-23T08:55:29.315Z,60.37
2022-11-23T08:57:59.211Z,55.53
2022-11-23T09:00:26.900Z,51.10
2022-11-23T09:02:53.851Z,51.33
2022-11-23T09:05:20.530Z,62.40
2022-11-23T09:07:47.168Z,52.03
2022-11-23T09:10:18.066Z,60.13
2022-11-23T09:12:45.676Z,55.33
2022-11-23T09:15:12.375Z,59.60
2022-11-23T09:17:38.975Z,56.20
2022-11-23T09:20:06.350Z,58.83
2022-11-23T09:22:32.887Z,57.47
2022-11-23T09:24:59.415Z,53.03
2022-11-23T09:27:26.224Z,63.10
2022-11-23T09:29:53.063Z,55.43
2022-11-23T09:32:19.466Z,57.33
2022-11-23T09:34:46.086Z,60.17
2022-11-23T09:37:13.318Z,57.73
2022-11-23T09:39:39.787Z,63.00
2022-11-23T09:42:19.493Z,63.47
2022-11-23T09:45:10.051Z,61.53
2022-11-23T09:47:52.756Z,63.87
2022-11-23T09:50:27.270Z,58.83
2022-11-23T09:52:54.279Z,57.80
2022-11-23T09:55:35.303Z,47.80
2022-11-23T09:58:04.567Z,49.63
2022-11-23T10:00:37.840Z,48.23
2022-11-23T10:03:04.492Z,43.60
2022-11-23T10:05:33.696Z,48.63
2022-11-23T10:08:09.089Z,47.13
2022-11-23T10:10:41.741Z,51.60
2022-11-23T10:13:23.515Z,51.40
2022-11-23T10:15:55.236Z,52.87
2022-11-23T10:18:31.685Z,50.77
2022-11-23T10:21:14.015Z,53.93
2022-11-23T10:23:55.758Z,50.90
2022-11-23T10:26:29.473Z,56.97
2022-11-23T10:28:56.692Z,61.63
2022-11-23T10:31:25.904Z,52.67
2022-11-23T10:34:10.144Z,52.97
2022-11-23T10:36:37.566Z,47.50
2022-11-23T10:39:14.456Z,50.40
2022-11-23T10:41:41.097Z,52.27
2022-11-23T10:44:33.144Z,57.13
2022-11-23T10:47:00.197Z,50.33
2022-11-23T10:49:31.133Z,50.70
2022-11-23T10:52:43.788Z,49.10
2022-11-23T10:55:10.650Z,47.03
2022-11-23T10:57:45.120Z,45.87
2022-11-23T11:00:14.788Z,52.80
2022-11-23T11:02:45.310Z,50.07
2022-11-23T11:06:06.858Z,53.53
2022-11-23T11:08:20.571Z,57.87
2022-11-23T11:10:59.355Z,53.60
2022-11-23T11:13:38.096Z,48.17
2022-11-23T11:16:07.479Z,50.47
2022-11-23T11:18:36.975Z,48.27
2022-11-23T11:21:06.505Z,47.67
2022-11-23T11:23:34.959Z,53.97
2022-11-23T11:26:14.506Z,50.20
2022-11-23T11:28:42.089Z,48.30
2022-11-23T11:31:36.587Z,55.07
2022-11-23T11:34:27.216Z,55.83
2022-11-23T11:37:27.151Z,46.13
2022-11-23T11:40:28.959Z,48.93
2022-11-23T11:42:59.361Z,48.73
2022-11-23T11:45:37.109Z,48.63
2022-11-23T11:48:03.672Z,44.77
2022-11-23T11:50:36.020Z,57.03
2022-11-23T11:53:15.699Z,45.23
2022-11-23T11:55:58.783Z,48.70
2022-11-23T11:58:26.451Z,47.47
2022-11-23T12:01:07.298Z,45.47
2022-11-23T12:03:41.881Z,45.47
2022-11-23T12:06:26.336Z,48.70
2022-11-23T12:09:01.709Z,43.47
2022-11-23T12:11:28.171Z,46.70
2022-11-23T12:14:00.688Z,45.83
2022-11-23T12:17:31.456Z,50.20
2022-11-23T12:20:02.231Z,42.30
2022-11-23T12:22:47.933Z,43.47
2022-11-23T12:25:35.369Z,37.93
2022-11-23T12:28:20.719Z,42.57
2022-11-23T12:30:59.404Z,45.27
2022-11-23T12:33:44.815Z,45.10
2022-11-23T12:36:42.924Z,56.60
2022-11-23T12:39:18.075Z,51.73
2022-11-23T12:42:07.645Z,55.70
2022-11-23T12:44:52.287Z,53.37
2022-11-23T12:47:40.326Z,61.60
2022-11-23T12:50:45.188Z,50.77
2022-11-23T12:53:26.975Z,53.87
2022-11-23T12:56:16.271Z,51.90
2022-11-23T12:58:47.436Z,55.03
2022-11-23T13:01:30.495Z,45.23
2022-11-23T13:04:42.075Z,50.07
2022-11-23T13:07:42.280Z,50.30
2022-11-23T13:10:26.169Z,56.60
2022-11-23T13:13:20.390Z,55.43
2022-11-23T13:16:10.510Z,46.27
2022-11-23T13:19:04.875Z,65.43
2022-11-23T13:21:46.943Z,63.60
2022-11-23T13:24:41.282Z,56.47
2022-11-23T13:27:13.807Z,62.70
2022-11-23T13:29:49.833Z,56.87
2022-11-23T13:32:36.831Z,55.70
2022-11-23T13:35:04.313Z,58.23
2022-11-23T13:37:31.042Z,51.97
2022-11-23T13:39:58.147Z,54.13
2022-11-23T13:42:26.846Z,55.83
2022-11-23T13:45:21.309Z,56.47
2022-11-23T13:48:09.513Z,51.23
2022-11-23T13:50:48.861Z,53.23
2022-11-23T13:53:25.225Z,56.73
2022-11-23T13:55:57.496Z,60.40
2022-11-23T13:58:24.347Z,63.47
2022-11-23T14:00:53.497Z,57.27
2022-11-23T14:03:52.303Z,66.23
2022-11-23T14:06:37.527Z,63.77
2022-11-23T14:09:24.319Z,64.13
2022-11-23T14:12:14.173Z,61.17
2022-11-23T14:14:43.307Z,61.87
2022-11-23T14:17:28.354Z,69.73
2022-11-23T14:20:09.007Z,66.67
2022-11-23T14:23:10.982Z,71.30
2022-11-23T14:25:46.644Z,69.97
2022-11-23T14:28:42.081Z,81.47
2022-11-23T14:31:16.273Z,73.57
2022-11-23T14:33:55.211Z,77.33
2022-11-23T14:36:47.101Z,69.80
2022-11-23T14:39:29.811Z,75.20
2022-11-23T14:42:01.702Z,73.43
2022-11-23T14:44:32.903Z,80.70
2022-11-23T14:47:07.016Z,72.60
2022-11-23T14:49:34.167Z,81.57
2022-11-23T14:52:01.826Z,72.10
2022-11-23T14:54:30.197Z,75.87
2022-11-23T14:57:00.566Z,78.03
2022-11-23T14:59:35.384Z,77.47
2022-11-23T15:02:06.221Z,72.63
2022-11-23T15:04:38.135Z,79.87
2022-11-23T15:07:35.202Z,79.53
2022-11-23T15:10:06.494Z,72.03
2022-11-23T15:12:42.856Z,82.10
2022-11-23T15:15:20.899Z,73.63
2022-11-23T15:18:01.058Z,75.07
2022-11-23T15:20:34.302Z,78.97
2022-11-23T15:23:01.912Z,80.37
2022-11-23T15:25:28.527Z,79.13
2022-11-23T15:27:55.769Z,80.80
2022-11-23T15:30:30.124Z,73.83
2022-11-23T15:32:58.824Z,85.83
2022-11-23T15:35:45.561Z,75.83
2022-11-23T15:38:16.656Z,83.37
2022-11-23T15:40:47.529Z,79.90
2022-11-23T15:43:15.327Z,85.20
2022-11-23T15:45:41.717Z,88.57
2022-11-23T15:48:35.488Z,97.70
2022-11-23T15:51:05.457Z,96.43
2022-11-23T15:53:34.222Z,86.47
2022-11-23T15:56:04.040Z,87.50
2022-11-23T15:58:31.546Z,97.00
2022-11-23T16:01:07.166Z,94.17
2022-11-23T16:04:02.315Z,90.20
2022-11-23T16:06:40.915Z,103.57
2022-11-23T16:12:30.506Z,99.83
2022-11-23T16:14:59.297Z,98.60
2022-11-23T16:17:27.379Z,89.53
2022-11-23T16:20:14.077Z,96.70
2022-11-23T16:22:42.537Z,94.57
2022-11-23T16:25:26.492Z,93.63
2022-11-23T16:28:03.679Z,85.20
2022-11-23T16:30:38.561Z,89.00
2022-11-23T16:33:05.994Z,93.67
2022-11-23T16:35:32.468Z,92.77
2022-11-23T16:37:58.920Z,87.53
2022-11-23T16:40:25.547Z,90.03
2022-11-23T16:42:52.999Z,105.70
2022-11-23T16:45:19.841Z,101.03
2022-11-23T16:47:52.143Z,90.03
2022-11-23T16:50:18.824Z,101.70
2022-11-23T16:52:45.310Z,110.43
2022-11-23T16:55:11.870Z,110.93
2022-11-23T16:57:38.783Z,116.27
2022-11-23T17:00:07.850Z,101.17
2022-11-23T17:02:35.501Z,112.80
2022-11-23T17:05:02.024Z,110.00
2022-11-23T17:07:28.572Z,111.20
2022-11-23T17:09:59.128Z,106.60
2022-11-23T17:12:25.645Z,101.47
2022-11-23T17:14:52.281Z,111.10
2022-11-23T17:17:22.342Z,106.93
2022-11-23T17:19:50.070Z,108.70
2022-11-23T17:22:17.763Z,106.57
2022-11-23T17:24:45.064Z,97.77
2022-11-23T17:27:14.532Z,101.93
2022-11-23T17:29:42.686Z,97.00
2022-11-23T17:32:14.065Z,99.83
2022-11-23T17:34:42.866Z,97.10
2022-11-23T17:37:17.040Z,96.20
2022-11-23T17:39:43.586Z,104.30
2022-11-23T17:42:11.899Z,113.00
2022-11-23T17:44:39.057Z,92.03
2022-11-23T17:47:06.138Z,104.63
2022-11-23T17:49:33.530Z,107.80
2022-11-23T17:52:00.434Z,112.97
2022-11-23T17:54:27.031Z,97.50
2022-11-23T17:56:53.609Z,101.43
2022-11-23T17:59:21.534Z,99.87
2022-11-23T18:01:48.179Z,103.27
2022-11-23T18:04:14.629Z,95.03
2022-11-23T18:06:41.142Z,96.27
2022-11-23T18:09:11.797Z,83.20
2022-11-23T18:11:38.460Z,89.67
2022-11-23T18:14:05.360Z,88.73
2022-11-23T18:16:31.975Z,90.77
2022-11-23T18:18:58.466Z,78.30
2022-11-23T18:21:25.166Z,89.53
2022-11-23T18:23:51.710Z,83.33
2022-11-23T18:26:21.095Z,81.93
2022-11-23T18:28:48.180Z,81.10
2022-11-23T18:31:15.358Z,82.77
2022-11-23T18:33:42.005Z,83.00
2022-11-23T18:36:09.378Z,88.43
2022-11-23T18:38:36.867Z,93.43
2022-11-23T18:41:03.460Z,86.27
2022-11-23T18:43:30.246Z,86.20
2022-11-23T18:45:57.524Z,83.70
2022-11-23T18:48:24.348Z,78.50
2022-11-23T18:50:51.730Z,80.87
2022-11-23T18:53:19.062Z,81.00
2022-11-23T18:55:45.791Z,68.77
2022-11-23T18:58:12.429Z,82.67
2022-11-23T19:00:39.008Z,79.20
2022-11-23T19:03:05.729Z,88.87
2022-11-23T19:05:38.835Z,91.07
2022-11-23T19:08:07.471Z,86.80
2022-11-23T19:10:36.246Z,84.40
2022-11-23T19:13:05.830Z,89.23
2022-11-23T19:15:33.678Z,91.47
2022-11-23T19:18:00.751Z,106.90
2022-11-23T19:20:29.116Z,93.23
2022-11-23T19:22:56.248Z,92.40
2022-11-23T19:25:22.884Z,93.57
2022-11-23T19:27:51.284Z,96.40
2022-11-23T19:30:18.145Z,104.53
2022-11-23T19:32:44.939Z,109.77
2022-11-23T19:35:11.584Z,113.63
2022-11-23T19:37:38.796Z,113.63
2022-11-23T19:40:05.966Z,102.93
2022-11-23T19:42:38.027Z,120.77
2022-11-23T19:45:04.939Z,101.37
2022-11-23T19:47:35.807Z,118.90
2022-11-23T19:50:02.512Z,115.90
2022-11-23T19:52:48.026Z,109.23
2022-11-23T19:55:16.508Z,109.80
2022-11-23T19:57:43.014Z,111.50
2022-11-23T20:00:10.454Z,119.67
2022-11-23T20:02:37.324Z,111.13
2022-11-23T20:05:03.966Z,116.07
2022-11-23T20:07:34.255Z,121.30
2022-11-23T20:10:00.988Z,111.30
2022-11-23T20:12:27.598Z,120.33
2022-11-23T20:14:54.256Z,121.70
2022-11-23T20:17:20.982Z,110.83
2022-11-23T20:19:47.723Z,125.83
2022-11-23T20:22:14.145Z,109.20
2022-11-23T20:24:40.971Z,120.27
2022-11-23T20:27:07.531Z,126.83
2022-11-23T20:29:34.419Z,118.03
2022-11-23T20:32:01.338Z,127.63
2022-11-23T20:34:28.067Z,122.80
2022-11-23T20:36:54.583Z,122.53
2022-11-23T20:39:21.250Z,131.03
2022-11-23T20:41:49.650Z,139.73
2022-11-23T20:44:16.262Z,118.83
2022-11-23T20:49:30.345Z,109.17
2022-11-23T20:51:57.240Z,114.90
2022-11-23T20:54:23.761Z,111.00
2022-11-23T20:56:50.246Z,120.40
2022-11-23T20:59:17.284Z,120.07
2022-11-23T21:01:43.940Z,112.90
2022-11-23T21:04:10.582Z,104.37
2022-11-23T21:06:39.508Z,113.43
2022-11-23T21:09:07.252Z,100.50
2022-11-23T21:11:52.199Z,107.93
2022-11-23T21:14:20.925Z,103.43
2022-11-23T21:16:56.021Z,100.87
2022-11-23T21:19:30.522Z,96.57
2022-11-23T21:21:58.579Z,87.13
2022-11-23T21:24:25.400Z,94.67
2022-11-23T21:26:51.944Z,98.13
2022-11-23T21:29:18.886Z,97.20
2022-11-23T21:31:46.746Z,86.07
2022-11-23T21:34:20.314Z,82.77
2022-11-23T21:36:47.073Z,79.37
2022-11-23T21:39:14.262Z,87.47
2022-11-23T21:41:41.359Z,86.70
2022-11-23T21:44:08.769Z,82.57
2022-11-23T21:46:37.255Z,80.70
2022-11-23T21:49:04.624Z,90.70
2022-11-23T21:51:31.250Z,88.40
2022-11-23T21:53:59.583Z,85.57
2022-11-23T21:56:26.868Z,83.33
2022-11-23T21:58:53.570Z,87.10
2022-11-23T22:01:25.283Z,88.40
2022-11-23T22:03:54.900Z,90.73
2022-11-23T22:06:21.584Z,90.17
2022-11-23T22:08:50.158Z,96.13
2022-11-23T22:11:21.809Z,91.97
2022-11-23T22:13:56.345Z,85.60
2022-11-23T22:16:34.394Z,75.57
2022-11-23T22:19:01.748Z,79.97
2022-11-23T22:21:32.177Z,79.87
2022-11-23T22:23:59.474Z,78.83
2022-11-23T22:26:27.847Z,77.03
2022-11-23T22:28:55.397Z,81.80
2022-11-23T22:31:25.161Z,84.53
2022-11-23T22:33:55.055Z,82.43
2022-11-23T22:36:23.304Z,77.47
2022-11-23T22:39:02.069Z,79.07
2022-11-23T22:41:29.943Z,82.70
2022-11-23T22:43:57.281Z,77.17
2022-11-23T22:46:24.731Z,74.53
2022-11-23T22:48:52.087Z,74.30
2022-11-23T22:51:21.540Z,70.00
2022-11-23T22:53:48.788Z,73.90
2022-11-23T22:56:19.814Z,73.03
2022-11-23T22:58:47.438Z,65.53
2022-11-23T23:01:16.792Z,76.47
2022-11-23T23:03:43.593Z,66.43
2022-11-23T23:06:19.186Z,77.27
2022-11-23T23:08:47.229Z,80.30
2022-11-23T23:11:14.815Z,71.67
2022-11-23T23:13:42.087Z,64.53
2022-11-23T23:16:12.044Z,73.60
2022-11-23T23:18:39.183Z,60.90
2022-11-23T23:21:11.206Z,68.57
2022-11-23T23:23:38.756Z,76.97
2022-11-23T23:26:06.312Z,77.27
2022-11-23T23:28:33.039Z,74.67
2022-11-23T23:31:07.353Z,79.00
2022-11-23T23:33:35.400Z,80.23
2022-11-23T23:36:13.012Z,68.83
2022-11-23T23:38:39.916Z,82.60
2022-11-23T23:41:07.405Z,72.77
2022-11-23T23:43:34.576Z,79.47
2022-11-23T23:46:05.169Z,84.77
2022-11-23T23:48:34.113Z,81.70
2022-11-23T23:51:08.040Z,78.60
2022-11-23T23:53:35.904Z,74.50
2022-11-23T23:56:07.863Z,85.27
2022-11-23T23:58:35.490Z,84.07
